Time;durP1;ratioP1;P1;durP2;ratioP2;P2;SDS_P1;SDS_P2;PMS_P1;PMS_P2;Temp;Humidity;BMP_temperature;BMP_pressure;BME280_temperature;BME280_humidity;BME280_pressure;Samples;Min_cycle;Max_cycle;Signal;HPM_P1;HPM_P2
2023/03/16 00:02:07;;;;;;;6.28;2.20;;;-2.00;99.90;;;;;;8201943;28;20032;-81
2023/03/16 00:06:07;;;;;;;3.55;2.10;;;-2.00;99.90;;;;;;8197270;28;20090;-81
2023/03/16 00:10:11;;;;;;;4.38;2.60;;;-2.20;99.90;;;;;;8198334;28;20023;-80
2023/03/16 00:14:11;;;;;;;5.60;2.97;;;-2.20;99.90;;;;;;8206939;28;20031;-81
2023/03/16 00:18:13;;;;;;;3.75;2.30;;;-2.10;99.90;;;;;;8209224;28;20055;-82
2023/03/16 00:22:15;;;;;;;7.78;3.00;;;-2.10;99.90;;;;;;8205490;28;20031;-80
2023/03/16 00:26:15;;;;;;;3.55;2.38;;;-2.20;99.90;;;;;;8199132;28;20029;-80
2023/03/16 00:30:16;;;;;;;6.13;3.08;;;-2.30;99.90;;;;;;8205093;28;20027;-80
2023/03/16 00:34:17;;;;;;;5.40;3.20;;;-2.30;99.90;;;;;;8197497;28;20027;-82
2023/03/16 00:38:19;;;;;;;3.60;2.63;;;-2.30;99.90;;;;;;8200215;28;20058;-81
2023/03/16 00:42:19;;;;;;;6.60;2.65;;;-2.40;99.90;;;;;;8200372;28;20538;-81
2023/03/16 00:46:25;;;;;;;5.93;2.92;;;-2.50;99.90;;;;;;8199156;28;20030;-82
2023/03/16 00:50:26;;;;;;;2.67;2.10;;;-2.40;99.90;;;;;;8202388;28;20026;-80
2023/03/16 00:54:27;;;;;;;4.45;2.67;;;-2.50;99.90;;;;;;8194261;28;20621;-80
2023/03/16 00:58:28;;;;;;;4.95;2.65;;;-2.50;99.90;;;;;;8200034;28;20515;-81
2023/03/16 01:02:29;;;;;;;4.75;3.22;;;-2.50;99.90;;;;;;8201461;28;20381;-81
2023/03/16 01:06:30;;;;;;;7.65;3.00;;;-2.40;99.90;;;;;;8196792;28;20045;-81
2023/03/16 01:10:32;;;;;;;5.13;2.47;;;-2.30;99.90;;;;;;8198307;28;20031;-81
2023/03/16 01:14:34;;;;;;;5.28;2.35;;;-2.50;99.90;;;;;;8205189;28;20522;-82
2023/03/16 01:18:34;;;;;;;3.78;2.60;;;-2.60;99.90;;;;;;8208453;28;20094;-81
2023/03/16 01:22:35;;;;;;;4.07;2.03;;;-2.70;99.90;;;;;;8210335;28;20035;-82
2023/03/16 01:26:36;;;;;;;3.05;2.00;;;-2.60;99.90;;;;;;8204054;28;20126;-81
2023/03/16 01:30:36;;;;;;;5.18;2.20;;;-2.70;99.90;;;;;;8206960;28;20027;-80
2023/03/16 01:34:37;;;;;;;3.60;2.17;;;-2.70;99.90;;;;;;8212575;28;20023;-81
2023/03/16 01:38:38;;;;;;;4.45;2.50;;;-2.70;99.90;;;;;;8205218;28;20027;-80
2023/03/16 01:42:58;;;;;;;4.55;2.33;;;-2.70;99.90;;;;;;8207688;28;20642;-82
2023/03/16 01:46:58;;;;;;;4.60;2.88;;;-2.90;99.90;;;;;;8209260;28;20616;-81
2023/03/16 01:50:59;;;;;;;4.95;2.40;;;-2.80;99.90;;;;;;8209248;28;20027;-82
2023/03/16 01:55:07;;;;;;;4.57;2.88;;;-2.80;99.90;;;;;;8212068;28;20028;-82
2023/03/16 01:59:13;;;;;;;3.90;2.10;;;-2.80;99.90;;;;;;8203217;28;20500;-80
2023/03/16 02:03:16;;;;;;;4.15;2.63;;;-2.70;99.90;;;;;;8204463;28;20491;-81
2023/03/16 02:07:20;;;;;;;4.10;2.20;;;-2.90;99.90;;;;;;8199625;28;20047;-82
2023/03/16 02:11:22;;;;;;;7.50;2.55;;;-2.90;99.90;;;;;;8205642;28;20046;-81
2023/03/16 02:15:23;;;;;;;3.55;2.25;;;-3.00;99.90;;;;;;8211789;28;20411;-80
2023/03/16 02:19:58;;;;;;;4.45;2.53;;;-3.10;99.90;;;;;;8206138;28;20070;-81
2023/03/16 02:24:02;;;;;;;8.27;2.47;;;-3.20;99.90;;;;;;8178586;28;20066;-81
2023/03/16 02:28:11;;;;;;;4.60;2.28;;;-3.20;99.90;;;;;;8202953;28;20381;-81
2023/03/16 02:32:13;;;;;;;5.20;2.63;;;-3.30;99.90;;;;;;8205835;28;20055;-80
2023/03/16 02:36:15;;;;;;;2.95;1.90;;;-3.40;99.90;;;;;;8210987;28;20027;-81
2023/03/16 02:40:24;;;;;;;6.22;2.85;;;-3.40;99.90;;;;;;8206226;28;20020;-79
2023/03/16 02:44:32;;;;;;;4.95;2.00;;;-3.30;99.90;;;;;;8198892;28;20093;-82
2023/03/16 02:49:06;;;;;;;4.70;2.28;;;-3.40;99.90;;;;;;8204427;28;20066;-81
2023/03/16 02:53:07;;;;;;;7.07;2.55;;;-3.50;99.90;;;;;;8202074;28;20027;-81
2023/03/16 02:57:08;;;;;;;4.07;2.08;;;-3.50;99.90;;;;;;8210527;28;20163;-80
2023/03/16 03:01:08;;;;;;;3.67;1.92;;;-3.50;99.90;;;;;;8206730;28;20026;-80
2023/03/16 03:05:09;;;;;;;5.30;2.17;;;-3.60;99.90;;;;;;8199404;28;20078;-82
2023/03/16 03:09:10;;;;;;;5.07;2.13;;;-3.60;99.90;;;;;;8198602;28;20020;-81
2023/03/16 03:13:12;;;;;;;3.92;1.85;;;-3.70;99.90;;;;;;8205054;28;20031;-82
2023/03/16 03:17:13;;;;;;;4.70;2.72;;;-3.70;99.90;;;;;;8207276;28;20050;-80
2023/03/16 03:21:14;;;;;;;4.40;2.60;;;-3.60;99.90;;;;;;8201117;28;20031;-80
2023/03/16 03:25:16;;;;;;;7.70;2.70;;;-3.60;99.90;;;;;;8199965;28;20054;-82
2023/03/16 03:29:16;;;;;;;3.40;1.90;;;-3.50;99.90;;;;;;8204118;28;20435;-81
2023/03/16 03:33:18;;;;;;;2.33;1.63;;;-3.40;99.90;;;;;;8197279;28;20035;-82
2023/03/16 03:37:18;;;;;;;4.32;2.45;;;-3.30;99.90;;;;;;8202336;28;20118;-82
2023/03/16 03:41:21;;;;;;;5.30;2.60;;;-3.30;99.90;;;;;;8200482;28;20034;-82
2023/03/16 03:45:21;;;;;;;7.10;2.70;;;-3.40;99.90;;;;;;8203107;28;20031;-82
2023/03/16 03:49:22;;;;;;;5.35;3.00;;;-3.50;99.90;;;;;;8203814;28;20396;-81
2023/03/16 03:53:22;;;;;;;3.90;2.47;;;-3.60;99.90;;;;;;8203449;28;20062;-80
2023/03/16 03:57:23;;;;;;;4.00;2.33;;;-3.60;99.90;;;;;;8200097;28;20412;-80
2023/03/16 04:01:23;;;;;;;7.97;2.63;;;-3.60;99.90;;;;;;8200533;28;20093;-79
2023/03/16 04:05:27;;;;;;;4.05;2.35;;;-3.50;99.90;;;;;;8199535;28;20019;-82
2023/03/16 04:09:28;;;;;;;5.38;2.97;;;-3.60;99.90;;;;;;8196942;28;20090;-80
2023/03/16 04:13:28;;;;;;;4.55;2.92;;;-3.70;99.90;;;;;;8198510;28;20023;-80
2023/03/16 04:17:29;;;;;;;6.20;3.70;;;-3.70;99.90;;;;;;8195733;28;20035;-81
2023/03/16 04:21:30;;;;;;;8.27;3.70;;;-3.80;99.90;;;;;;8200609;28;20500;-82
2023/03/16 04:25:31;;;;;;;34.13;12.27;;;-3.60;99.90;;;;;;8204976;28;20063;-80
2023/03/16 04:29:31;;;;;;;19.13;8.57;;;-3.60;99.90;;;;;;8200046;28;20094;-82
2023/03/16 04:33:33;;;;;;;13.82;5.30;;;-3.70;99.90;;;;;;8181306;28;20037;-81
2023/03/16 04:37:34;;;;;;;10.05;4.32;;;-3.70;99.90;;;;;;8204997;28;20023;-81
2023/03/16 04:41:35;;;;;;;7.50;3.90;;;-3.70;99.90;;;;;;8201712;28;20019;-79
2023/03/16 04:45:35;;;;;;;8.20;3.33;;;-3.60;99.90;;;;;;8203526;28;20016;-81
2023/03/16 04:49:36;;;;;;;8.10;3.03;;;-3.50;99.90;;;;;;8202865;28;20015;-80
2023/03/16 04:53:36;;;;;;;5.63;3.13;;;-3.30;99.90;;;;;;8211368;28;20065;-81
2023/03/16 04:57:37;;;;;;;6.63;2.75;;;-3.40;99.90;;;;;;8211524;28;20069;-79
2023/03/16 05:01:37;;;;;;;7.97;3.55;;;-3.40;99.90;;;;;;8206310;28;20114;-80
2023/03/16 05:05:38;;;;;;;6.72;3.28;;;-3.40;99.90;;;;;;8201855;28;20023;-80
2023/03/16 05:09:39;;;;;;;4.18;2.60;;;-3.50;99.90;;;;;;8205604;28;20043;-80
2023/03/16 05:13:39;;;;;;;6.60;3.08;;;-3.60;99.90;;;;;;8210528;28;20027;-82
2023/03/16 05:17:41;;;;;;;4.45;3.03;;;-3.60;99.90;;;;;;8204366;28;20032;-81
2023/03/16 05:21:41;;;;;;;4.60;2.78;;;-3.60;99.90;;;;;;8206916;28;20031;-80
2023/03/16 05:25:42;;;;;;;5.50;3.10;;;-3.60;99.90;;;;;;8202817;28;20519;-80
2023/03/16 05:29:45;;;;;;;13.13;5.38;;;-3.50;99.90;;;;;;8206198;28;20033;-81
2023/03/16 05:33:47;;;;;;;18.60;8.98;;;-3.40;99.90;;;;;;8206548;28;20027;-83
2023/03/16 05:37:47;;;;;;;5.28;3.72;;;-3.50;99.90;;;;;;8202169;28;20024;-83
2023/03/16 05:41:48;;;;;;;8.45;3.50;;;-3.50;99.90;;;;;;8202609;28;20034;-83
2023/03/16 05:45:48;;;;;;;7.13;3.60;;;-3.50;99.90;;;;;;8201570;28;20074;-83
2023/03/16 05:49:49;;;;;;;6.07;3.45;;;-3.40;99.90;;;;;;8201690;28;20023;-83
2023/03/16 05:53:49;;;;;;;7.50;3.95;;;-3.50;99.90;;;;;;8200775;28;20082;-83
2023/03/16 05:57:50;;;;;;;7.78;3.15;;;-3.60;99.90;;;;;;8199431;28;20023;-82
2023/03/16 06:01:50;;;;;;;6.00;2.65;;;-3.50;99.90;;;;;;8200708;28;20027;-83
2023/03/16 06:05:52;;;;;;;7.07;3.63;;;-3.50;99.90;;;;;;8199408;28;20027;-82
2023/03/16 06:09:52;;;;;;;7.70;3.28;;;-3.40;99.90;;;;;;8200114;28;20404;-82
2023/03/16 06:13:56;;;;;;;5.30;3.10;;;-3.30;99.90;;;;;;8198983;28;20031;-82
2023/03/16 06:17:57;;;;;;;5.95;3.65;;;-3.00;99.90;;;;;;8199643;28;20058;-82
2023/03/16 06:21:57;;;;;;;6.82;4.13;;;-2.90;99.90;;;;;;8200288;28;20551;-81
2023/03/16 06:25:59;;;;;;;7.68;3.30;;;-2.70;99.90;;;;;;8198097;28;20496;-81
2023/03/16 06:30:00;;;;;;;8.38;4.47;;;-2.50;99.90;;;;;;8196647;28;20107;-82
2023/03/16 06:34:01;;;;;;;3.75;2.65;;;-2.20;99.90;;;;;;8197427;28;20036;-82
2023/03/16 06:38:02;;;;;;;6.22;4.20;;;-1.90;99.90;;;;;;8198305;28;20035;-83
2023/03/16 06:42:03;;;;;;;5.75;4.32;;;-1.70;99.90;;;;;;8198546;28;20108;-82
2023/03/16 06:46:04;;;;;;;7.05;4.65;;;-1.60;99.90;;;;;;8197507;28;20042;-82
2023/03/16 06:50:05;;;;;;;9.88;5.78;;;-1.40;99.90;;;;;;8200667;28;20492;-82
2023/03/16 06:54:06;;;;;;;13.40;6.18;;;-1.20;99.90;;;;;;8199118;28;20035;-81
2023/03/16 06:58:06;;;;;;;15.18;5.10;;;-0.80;99.90;;;;;;8196967;28;20050;-82
2023/03/16 07:02:12;;;;;;;11.77;5.50;;;-1.10;99.90;;;;;;8197682;28;20611;-82
2023/03/16 07:06:12;;;;;;;10.05;4.93;;;-0.70;99.90;;;;;;8199024;28;20051;-82
2023/03/16 07:10:16;;;;;;;8.95;5.10;;;-0.50;99.90;;;;;;8201421;28;20032;-82
2023/03/16 07:14:18;;;;;;;8.13;4.15;;;-0.50;99.90;;;;;;8202589;28;20456;-82
2023/03/16 07:18:19;;;;;;;11.13;5.75;;;-0.50;99.90;;;;;;8202750;28;20477;-81
2023/03/16 07:22:20;;;;;;;11.32;5.85;;;-0.40;99.90;;;;;;8197442;28;20027;-82
2023/03/16 07:26:21;;;;;;;7.45;4.72;;;-0.10;99.90;;;;;;8198042;28;20480;-82
2023/03/16 07:30:24;;;;;;;11.75;5.22;;;0.10;99.90;;;;;;8197867;28;20057;-83
2023/03/16 07:34:24;;;;;;;11.65;5.07;;;0.00;99.90;;;;;;8199848;28;20019;-83
2023/03/16 07:38:25;;;;;;;12.50;5.82;;;0.40;99.90;;;;;;8197471;28;20119;-83
2023/03/16 07:42:25;;;;;;;9.93;4.88;;;0.70;99.90;;;;;;8197428;28;20039;-83
2023/03/16 07:46:26;;;;;;;11.23;6.25;;;0.60;99.90;;;;;;8198876;28;20377;-82
2023/03/16 07:50:26;;;;;;;8.38;4.60;;;0.90;99.90;;;;;;8200187;28;20106;-82
2023/03/16 07:54:27;;;;;;;9.73;4.78;;;0.90;99.90;;;;;;8201616;28;20027;-83
2023/03/16 07:58:27;;;;;;;10.55;5.28;;;1.00;99.90;;;;;;8197639;28;20038;-83
2023/03/16 08:02:28;;;;;;;10.50;5.05;;;1.30;99.90;;;;;;8197976;28;20105;-83
2023/03/16 08:06:29;;;;;;;6.75;4.25;;;1.30;99.90;;;;;;8198297;28;20484;-82
2023/03/16 08:10:30;;;;;;;6.00;3.88;;;1.20;99.90;;;;;;8196805;28;20043;-82
2023/03/16 08:14:34;;;;;;;6.78;3.92;;;1.50;99.90;;;;;;8201243;28;20031;-82
2023/03/16 08:18:35;;;;;;;7.25;3.88;;;1.80;99.90;;;;;;8199803;28;20083;-83
2023/03/16 08:22:36;;;;;;;5.30;3.40;;;2.00;99.90;;;;;;8201725;28;20574;-83
2023/03/16 08:26:37;;;;;;;6.50;3.67;;;2.20;99.90;;;;;;8219209;28;20019;-83
2023/03/16 08:30:43;;;;;;;6.30;3.33;;;2.20;99.90;;;;;;8218607;28;20027;-82
2023/03/16 08:34:44;;;;;;;5.47;3.03;;;2.40;99.90;;;;;;8226790;28;20018;-82
2023/03/16 08:38:46;;;;;;;4.80;2.92;;;2.70;99.90;;;;;;8226896;28;20027;-81
2023/03/16 08:42:48;;;;;;;3.92;2.83;;;2.90;99.90;;;;;;8211546;28;20024;-82
2023/03/16 08:46:50;;;;;;;4.47;2.63;;;3.20;99.90;;;;;;8203810;28;20160;-81
2023/03/16 08:50:52;;;;;;;5.00;3.10;;;3.40;99.90;;;;;;8208044;28;20415;-81
2023/03/16 08:54:53;;;;;;;6.45;3.25;;;3.60;99.90;;;;;;8203197;28;20031;-82
2023/03/16 08:58:54;;;;;;;5.70;2.95;;;3.80;99.90;;;;;;8215998;28;20585;-80
2023/03/16 09:02:55;;;;;;;6.47;3.20;;;4.20;99.90;;;;;;8211336;28;20054;-80
2023/03/16 09:06:56;;;;;;;4.47;2.45;;;4.50;99.90;;;;;;8222627;28;20034;-81
2023/03/16 09:11:06;;;;;;;6.80;3.40;;;4.80;99.90;;;;;;8220538;28;20035;-79
2023/03/16 09:15:08;;;;;;;3.22;2.17;;;5.00;99.90;;;;;;8222213;28;20442;-80
2023/03/16 09:19:10;;;;;;;3.22;2.10;;;5.10;99.90;;;;;;8217912;28;20315;-80
2023/03/16 09:23:12;;;;;;;3.08;1.85;;;5.40;99.90;;;;;;8219348;28;20464;-79
2023/03/16 09:27:14;;;;;;;3.67;2.28;;;5.70;99.90;;;;;;8222433;28;20030;-80
2023/03/16 09:31:17;;;;;;;3.30;2.00;;;5.90;99.90;;;;;;8225147;28;20027;-79
2023/03/16 09:35:18;;;;;;;3.60;1.98;;;6.10;99.90;;;;;;8227142;28;20100;-80
2023/03/16 09:39:19;;;;;;;2.30;1.77;;;6.30;99.90;;;;;;8226119;28;20078;-79
2023/03/16 09:43:43;;;;;;;3.95;2.05;;;7.00;99.90;;;;;;8227970;28;20023;-80
2023/03/16 09:47:46;;;;;;;2.00;1.30;;;7.70;99.90;;;;;;8225425;28;20023;-80
2023/03/16 09:51:51;;;;;;;3.50;1.95;;;8.50;99.90;;;;;;8207703;28;20024;-79
2023/03/16 09:56:00;;;;;;;3.25;2.20;;;8.90;99.90;;;;;;8196880;28;20023;-80
2023/03/16 10:00:13;;;;;;;5.05;2.20;;;9.00;99.90;;;;;;8180878;28;20051;-80
2023/03/16 10:04:39;;;;;;;3.80;1.60;;;9.60;99.90;;;;;;8199357;28;20050;-79
2023/03/16 10:08:43;;;;;;;4.70;1.88;;;9.90;99.90;;;;;;8197029;28;20030;-79
2023/03/16 10:12:49;;;;;;;3.20;2.25;;;9.20;99.90;;;;;;8197275;28;20031;-79
2023/03/16 10:17:01;;;;;;;3.13;1.92;;;9.20;99.90;;;;;;8197775;28;20051;-79
2023/03/16 10:21:02;;;;;;;4.25;2.25;;;9.20;99.90;;;;;;8197122;28;20404;-80
2023/03/16 10:25:18;;;;;;;2.30;1.50;;;10.30;99.90;;;;;;8196002;28;20029;-80
2023/03/16 10:29:19;;;;;;;4.50;1.55;;;11.60;99.90;;;;;;8195683;28;20046;-80
2023/03/16 10:33:32;;;;;;;2.15;1.33;;;12.30;99.90;;;;;;8195477;28;20027;-79
2023/03/16 10:37:33;;;;;;;3.03;0.82;;;12.10;99.90;;;;;;8191075;28;20443;-79
2023/03/16 10:41:36;;;;;;;4.80;2.25;;;11.50;99.90;;;;;;8179424;28;20031;-80
2023/03/16 10:45:37;;;;;;;1.35;0.95;;;11.30;99.90;;;;;;8195605;28;20023;-80
2023/03/16 10:49:40;;;;;;;1.08;0.93;;;12.50;99.90;;;;;;8196566;28;20034;-80
2023/03/16 10:53:43;;;;;;;1.98;1.35;;;13.40;99.90;;;;;;8194672;28;20345;-80
2023/03/16 10:57:50;;;;;;;1.92;1.13;;;13.50;99.60;;;;;;8194374;28;20027;-80
2023/03/16 11:01:51;;;;;;;1.40;1.10;;;13.10;96.70;;;;;;8195057;28;20120;-80
2023/03/16 11:06:03;;;;;;;1.13;0.77;;;13.60;95.30;;;;;;8196065;28;20019;-80
2023/03/16 11:10:27;;;;;;;2.60;1.20;;;13.50;93.90;;;;;;8195094;28;20027;-80
2023/03/16 11:14:28;;;;;;;1.20;0.98;;;14.10;94.20;;;;;;8197709;28;20200;-80
2023/03/16 11:18:32;;;;;;;2.40;1.17;;;13.70;92.90;;;;;;8214370;28;20090;-80
2023/03/16 11:22:32;;;;;;;1.65;1.10;;;13.30;95.40;;;;;;8201604;28;20039;-79
2023/03/16 11:26:36;;;;;;;1.75;1.13;;;13.50;94.50;;;;;;8197693;28;20058;-79
2023/03/16 11:31:03;;;;;;;1.50;1.23;;;13.80;92.90;;;;;;8195779;28;20031;-79
2023/03/16 11:35:36;;;;;;;4.93;1.70;;;14.70;92.10;;;;;;8178564;28;20097;-80
2023/03/16 11:39:53;;;;;;;3.33;1.50;;;14.30;90.40;;;;;;8190429;28;20023;-80
2023/03/16 11:44:08;;;;;;;2.25;1.13;;;14.40;91.60;;;;;;8192874;28;20031;-80
2023/03/16 11:48:20;;;;;;;2.00;1.23;;;15.30;87.20;;;;;;8195358;28;20066;-79
2023/03/16 11:52:30;;;;;;;1.27;1.10;;;14.40;89.00;;;;;;8195801;28;20031;-78
2023/03/16 11:56:37;;;;;;;1.60;1.10;;;15.20;84.50;;;;;;8189934;28;20019;-79
2023/03/16 12:00:53;;;;;;;3.78;1.20;;;15.50;84.60;;;;;;8195258;28;20377;-79
2023/03/16 12:05:15;;;;;;;1.50;1.05;;;15.20;83.80;;;;;;8187336;28;20153;-79
2023/03/16 12:09:27;;;;;;;2.55;1.38;;;15.10;80.00;;;;;;8193820;28;20027;-79
2023/03/16 12:13:53;;;;;;;1.95;1.50;;;15.80;86.40;;;;;;8193287;28;20023;-79
2023/03/16 12:18:09;;;;;;;3.10;1.60;;;16.40;76.30;;;;;;8190628;28;20035;-80
2023/03/16 12:22:18;;;;;;;4.47;1.35;;;15.90;77.30;;;;;;8190183;28;20433;-80
2023/03/16 12:26:22;;;;;;;1.65;1.30;;;16.10;79.10;;;;;;8193369;28;20086;-80
2023/03/16 12:30:43;;;;;;;2.08;1.30;;;17.10;73.70;;;;;;8193534;28;20031;-81
2023/03/16 12:35:27;;;;;;;3.10;1.60;;;17.00;73.90;;;;;;8183282;28;20043;-80
2023/03/16 12:39:34;;;;;;;2.40;1.73;;;17.30;68.70;;;;;;8130503;28;20027;-80
2023/03/16 12:44:05;;;;;;;2.10;1.48;;;16.50;72.10;;;;;;8175764;28;20090;-80
2023/03/16 12:48:26;;;;;;;1.57;1.20;;;16.90;69.60;;;;;;8191341;28;20023;-80
2023/03/16 12:52:37;;;;;;;2.33;1.45;;;17.70;71.60;;;;;;8191931;28;20059;-80
2023/03/16 12:56:46;;;;;;;1.90;1.23;;;16.90;67.10;;;;;;8187933;28;20023;-80
2023/03/16 13:00:56;;;;;;;2.45;1.40;;;16.80;72.90;;;;;;8190210;28;20034;-80
2023/03/16 13:05:00;;;;;;;1.88;1.30;;;17.40;69.20;;;;;;8190502;28;20507;-80
2023/03/16 13:09:04;;;;;;;1.60;1.20;;;19.20;72.60;;;;;;8200059;28;20127;-80
2023/03/16 13:13:14;;;;;;;1.33;1.20;;;17.70;74.80;;;;;;8199579;28;20077;-79
2023/03/16 13:17:15;;;;;;;2.05;1.20;;;18.20;72.10;;;;;;8200056;28;20041;-80
2023/03/16 13:21:33;;;;;;;1.90;1.30;;;16.90;79.80;;;;;;8199410;28;20035;-79
2023/03/16 13:25:42;;;;;;;2.05;1.35;;;16.20;82.30;;;;;;8194314;28;20030;-79
2023/03/16 13:29:56;;;;;;;2.40;1.42;;;17.40;73.10;;;;;;8200843;28;20031;-80
2023/03/16 13:33:58;;;;;;;1.92;1.40;;;17.20;76.10;;;;;;8198899;28;20027;-80
2023/03/16 13:38:06;;;;;;;0.70;0.40;;;18.60;73.10;;;;;;8200294;28;20034;-80
2023/03/16 13:42:19;;;;;;;2.28;1.40;;;18.30;68.50;;;;;;8199547;28;20031;-80
2023/03/16 13:46:26;;;;;;;2.92;1.48;;;16.20;75.00;;;;;;8198655;28;20500;-81
2023/03/16 13:50:30;;;;;;;3.63;1.90;;;15.80;75.50;;;;;;8198859;28;20078;-80
2023/03/16 13:54:31;;;;;;;1.55;1.20;;;16.80;74.50;;;;;;8195475;28;20461;-80
2023/03/16 13:58:36;;;;;;;1.90;1.27;;;17.40;75.30;;;;;;8197862;28;20023;-81
2023/03/16 14:02:42;;;;;;;2.25;1.23;;;17.60;76.80;;;;;;8199584;28;20067;-80
2023/03/16 14:06:53;;;;;;;2.03;1.30;;;18.10;74.00;;;;;;8201043;28;20579;-80
2023/03/16 14:10:55;;;;;;;3.47;1.58;;;19.00;66.70;;;;;;8201417;28;20476;-81
2023/03/16 14:14:56;;;;;;;3.50;1.05;;;19.70;63.40;;;;;;8199879;28;20491;-81
2023/03/16 14:19:00;;;;;;;1.73;1.13;;;17.40;76.90;;;;;;8198998;28;20118;-81
2023/03/16 14:23:01;;;;;;;2.55;1.70;;;16.10;79.70;;;;;;8201155;28;20485;-81
2023/03/16 14:27:19;;;;;;;1.60;1.40;;;16.10;81.30;;;;;;8199840;28;20082;-81
2023/03/16 14:31:20;;;;;;;2.15;1.30;;;17.40;75.10;;;;;;8199424;28;20038;-80
2023/03/16 14:35:24;;;;;;;1.55;1.10;;;15.90;79.30;;;;;;8199370;28;20099;-82
2023/03/16 14:39:27;;;;;;;2.75;1.20;;;18.90;71.40;;;;;;8201045;28;20106;-81
2023/03/16 14:43:45;;;;;;;1.75;1.30;;;19.80;68.30;;;;;;8196450;28;20071;-81
2023/03/16 14:47:48;;;;;;;1.27;1.02;;;20.00;56.40;;;;;;8195887;28;20102;-81
2023/03/16 14:51:52;;;;;;;1.50;0.90;;;16.50;65.90;;;;;;8199868;28;20070;-81
2023/03/16 14:55:57;;;;;;;1.70;0.95;;;16.60;63.70;;;;;;8195901;28;20031;-80
2023/03/16 14:59:58;;;;;;;1.90;1.30;;;16.20;65.60;;;;;;8198454;28;20039;-79
2023/03/16 15:03:58;;;;;;;1.40;1.00;;;14.70;70.40;;;;;;8196857;28;20074;-81
2023/03/16 15:08:00;;;;;;;2.45;1.05;;;15.00;68.10;;;;;;8178088;28;20038;-80
2023/03/16 15:12:01;;;;;;;1.17;0.80;;;14.70;71.00;;;;;;8179650;28;20062;-81
2023/03/16 15:16:05;;;;;;;2.00;1.00;;;14.50;71.70;;;;;;8197860;28;20039;-80
2023/03/16 15:20:06;;;;;;;3.25;1.30;;;16.30;68.90;;;;;;8198391;28;20031;-81
2023/03/16 15:24:10;;;;;;;2.17;1.10;;;17.60;66.00;;;;;;8197776;28;20118;-81
2023/03/16 15:28:17;;;;;;;0.85;0.70;;;17.90;63.60;;;;;;8195513;28;20020;-79
2023/03/16 15:32:18;;;;;;;2.45;1.33;;;15.10;69.40;;;;;;8195601;28;20027;-80
2023/03/16 15:36:21;;;;;;;4.47;1.45;;;14.90;70.30;;;;;;8195781;28;20023;-79
2023/03/16 15:40:27;;;;;;;1.60;1.20;;;13.60;76.90;;;;;;8194149;28;20039;-79
2023/03/16 15:44:28;;;;;;;2.17;0.95;;;12.50;82.70;;;;;;8172277;28;20373;-79
2023/03/16 15:48:28;;;;;;;1.27;0.90;;;11.70;83.00;;;;;;8198163;28;20028;-80
2023/03/16 15:52:32;;;;;;;3.00;1.50;;;11.50;88.40;;;;;;8195522;28;20492;-79
2023/03/16 15:56:38;;;;;;;1.08;0.90;;;11.40;88.00;;;;;;8188891;28;20163;-80
2023/03/16 16:00:40;;;;;;;3.10;1.60;;;11.40;86.60;;;;;;8195665;28;20031;-80
2023/03/16 16:04:42;;;;;;;2.13;1.40;;;11.60;86.60;;;;;;8195634;28;20020;-80
2023/03/16 16:08:43;;;;;;;3.78;1.70;;;11.40;87.80;;;;;;8194482;28;20031;-80
2023/03/16 16:12:50;;;;;;;3.10;1.55;;;11.40;86.20;;;;;;8193795;28;20423;-80
2023/03/16 16:16:52;;;;;;;2.20;1.50;;;11.40;90.10;;;;;;8196077;28;20027;-79
2023/03/16 16:20:54;;;;;;;3.78;1.85;;;11.00;89.20;;;;;;8194040;28;20464;-80
2023/03/16 16:24:54;;;;;;;3.20;1.80;;;10.80;91.40;;;;;;8195783;28;20028;-80
2023/03/16 16:28:57;;;;;;;3.10;2.20;;;10.60;93.10;;;;;;8194674;28;20030;-80
2023/03/16 16:32:57;;;;;;;3.13;2.08;;;10.10;92.90;;;;;;8195012;28;20170;-80
2023/03/16 16:36:58;;;;;;;4.85;1.98;;;10.00;94.90;;;;;;8192780;28;20034;-79
2023/03/16 16:41:00;;;;;;;3.22;2.00;;;9.90;94.00;;;;;;8197352;28;20066;-80
2023/03/16 16:45:01;;;;;;;4.25;1.63;;;9.80;94.10;;;;;;8202081;28;20055;-80
2023/03/16 16:49:18;;;;;;;4.57;1.98;;;9.60;95.80;;;;;;8199984;28;20614;-79
2023/03/16 16:53:20;;;;;;;7.15;2.17;;;9.40;97.30;;;;;;8204654;28;20039;-79
2023/03/16 16:57:21;;;;;;;4.22;2.20;;;9.30;96.70;;;;;;8198069;28;20055;-80
2023/03/16 17:01:33;;;;;;;2.72;1.60;;;9.10;96.60;;;;;;8196593;28;20031;-79
2023/03/16 17:05:34;;;;;;;3.53;2.20;;;9.00;98.40;;;;;;8182575;28;20102;-79
2023/03/16 17:09:35;;;;;;;3.13;1.67;;;8.60;99.20;;;;;;8199532;28;20024;-80
2023/03/16 17:13:39;;;;;;;5.80;1.80;;;8.40;99.90;;;;;;8199616;28;20029;-80
2023/03/16 17:17:39;;;;;;;2.45;1.60;;;8.20;99.90;;;;;;8199129;28;20106;-79
2023/03/16 17:21:40;;;;;;;2.17;1.33;;;8.00;99.90;;;;;;8199110;28;20031;-81
2023/03/16 17:25:41;;;;;;;3.78;1.55;;;7.60;99.90;;;;;;8193299;28;20031;-81
2023/03/16 17:29:42;;;;;;;2.45;1.52;;;7.30;99.90;;;;;;8187610;28;20507;-80
2023/03/16 17:33:43;;;;;;;1.80;1.35;;;6.90;99.90;;;;;;8199355;28;20023;-80
2023/03/16 17:37:46;;;;;;;2.00;1.50;;;6.60;99.90;;;;;;8196092;28;20035;-80
2023/03/16 17:42:03;;;;;;;3.60;1.65;;;6.40;99.90;;;;;;8199145;28;20054;-80
2023/03/16 17:46:04;;;;;;;2.33;1.55;;;6.20;99.90;;;;;;8198301;28;20074;-80
2023/03/16 17:50:23;;;;;;;2.65;1.55;;;6.10;99.90;;;;;;8196309;28;20034;-80
2023/03/16 17:54:24;;;;;;;4.07;2.08;;;6.00;99.90;;;;;;8198218;28;20024;-79
2023/03/16 17:58:28;;;;;;;3.55;1.65;;;5.70;99.90;;;;;;8193984;28;20070;-79
2023/03/16 18:02:52;;;;;;;3.45;1.85;;;5.70;99.90;;;;;;8196562;28;20027;-79
2023/03/16 18:06:54;;;;;;;3.40;2.13;;;5.80;99.90;;;;;;8193912;28;20034;-79
2023/03/16 18:11:10;;;;;;;3.83;2.00;;;5.60;99.90;;;;;;8196623;28;20094;-80
2023/03/16 18:15:17;;;;;;;4.28;2.28;;;5.60;99.90;;;;;;8180221;28;20082;-79
2023/03/16 18:19:24;;;;;;;5.53;2.58;;;5.50;99.90;;;;;;8176608;28;20042;-80
2023/03/16 18:23:28;;;;;;;3.30;2.28;;;5.30;99.90;;;;;;8193331;28;20031;-81
2023/03/16 18:27:29;;;;;;;6.32;3.40;;;5.30;99.90;;;;;;8196317;28;20028;-80
2023/03/16 18:31:29;;;;;;;6.22;4.13;;;5.90;99.90;;;;;;8196569;28;20031;-79
2023/03/16 18:35:30;;;;;;;12.27;6.47;;;5.90;99.90;;;;;;8195696;28;20107;-80
2023/03/16 18:39:31;;;;;;;7.90;4.95;;;5.90;99.90;;;;;;8200349;28;20399;-79
2023/03/16 18:43:32;;;;;;;6.32;3.50;;;5.70;99.90;;;;;;8189991;28;20039;-78
2023/03/16 18:47:33;;;;;;;6.72;4.18;;;6.10;99.90;;;;;;8195060;28;20609;-79
2023/03/16 18:51:33;;;;;;;8.07;4.07;;;6.00;99.90;;;;;;8198423;28;20035;-79
2023/03/16 18:55:35;;;;;;;6.43;4.00;;;5.60;99.90;;;;;;8197038;28;20031;-79
2023/03/16 18:59:35;;;;;;;7.88;4.47;;;5.60;99.90;;;;;;8195509;28;20524;-80
2023/03/16 19:03:42;;;;;;;9.63;4.40;;;5.20;99.90;;;;;;8192159;28;20038;-79
2023/03/16 19:07:46;;;;;;;5.72;3.53;;;4.80;99.90;;;;;;8192128;28;20655;-79
2023/03/16 19:11:47;;;;;;;9.32;4.20;;;4.60;99.90;;;;;;8196636;28;20408;-80
2023/03/16 19:15:50;;;;;;;17.67;5.53;;;4.50;99.90;;;;;;8196322;28;20496;-79
2023/03/16 19:19:51;;;;;;;13.90;4.70;;;4.40;99.90;;;;;;8190004;28;20073;-79
2023/03/16 19:23:58;;;;;;;5.20;3.53;;;4.20;99.90;;;;;;8192000;28;20035;-80
2023/03/16 19:27:59;;;;;;;6.28;3.75;;;4.00;99.90;;;;;;8173592;28;20027;-79
2023/03/16 19:32:00;;;;;;;12.65;6.00;;;3.60;99.90;;;;;;8195529;28;20035;-80
2023/03/16 19:36:01;;;;;;;16.02;7.05;;;3.30;99.90;;;;;;8192819;28;20066;-79
2023/03/16 19:40:01;;;;;;;18.08;9.45;;;3.10;99.90;;;;;;8192795;28;20034;-79
2023/03/16 19:44:18;;;;;;;17.30;8.50;;;3.20;99.90;;;;;;8195443;28;20027;-79
2023/03/16 19:48:25;;;;;;;19.77;7.95;;;3.10;99.90;;;;;;8188710;28;20039;-79
2023/03/16 19:52:29;;;;;;;13.10;6.78;;;2.90;99.90;;;;;;8192828;28;20023;-78
2023/03/16 19:56:30;;;;;;;16.88;8.25;;;2.60;99.90;;;;;;8193199;28;20027;-78
2023/03/16 20:00:30;;;;;;;13.52;7.45;;;2.40;99.90;;;;;;8186008;28;20027;-78
2023/03/16 20:04:32;;;;;;;17.23;7.85;;;2.30;99.90;;;;;;8192121;28;20105;-79
2023/03/16 20:08:32;;;;;;;14.73;6.28;;;2.20;99.90;;;;;;8189511;28;20026;-79
2023/03/16 20:12:35;;;;;;;14.95;8.23;;;2.10;99.90;;;;;;8192229;28;20027;-79
2023/03/16 20:16:36;;;;;;;13.50;7.50;;;2.00;99.90;;;;;;8189442;28;20042;-79
2023/03/16 20:20:37;;;;;;;14.60;7.30;;;1.90;99.90;;;;;;8191549;28;20507;-80
2023/03/16 20:24:37;;;;;;;27.17;10.85;;;1.90;99.90;;;;;;8190944;28;20031;-79
2023/03/16 20:28:38;;;;;;;31.13;12.50;;;1.90;99.90;;;;;;8194682;28;20110;-79
2023/03/16 20:32:41;;;;;;;25.35;11.10;;;2.00;99.90;;;;;;8191497;28;20066;-79
2023/03/16 20:36:42;;;;;;;19.13;9.18;;;2.00;99.90;;;;;;8195568;28;20019;-80
2023/03/16 20:40:45;;;;;;;17.80;8.45;;;1.80;99.90;;;;;;8194941;28;20050;-80
2023/03/16 20:44:46;;;;;;;20.13;9.02;;;1.60;99.90;;;;;;8192752;28;20575;-79
2023/03/16 20:48:46;;;;;;;14.38;6.50;;;1.40;99.90;;;;;;8192159;28;20022;-79
2023/03/16 20:52:48;;;;;;;16.00;6.55;;;1.30;99.90;;;;;;8196058;28;20046;-80
2023/03/16 20:56:48;;;;;;;14.82;6.75;;;1.20;99.90;;;;;;8192393;28;20035;-81
2023/03/16 21:00:51;;;;;;;14.70;5.90;;;1.00;99.90;;;;;;8174868;28;20061;-79
2023/03/16 21:04:53;;;;;;;10.43;5.50;;;0.90;99.90;;;;;;8188286;28;20404;-79
2023/03/16 21:08:56;;;;;;;12.40;7.00;;;0.90;99.90;;;;;;8192673;28;20389;-79
2023/03/16 21:12:57;;;;;;;15.05;6.63;;;0.90;99.90;;;;;;8182653;28;20040;-78